createdAt,value
2022-08-26T00:01:54.594Z,82.51
2022-08-26T00:06:57.814Z,83.97
2022-08-26T00:12:02.578Z,85.38
2022-08-26T00:17:05.655Z,81.59
2022-08-26T00:22:12.083Z,80.47
2022-08-26T00:27:16.258Z,82.82
2022-08-26T00:32:20.222Z,78.20
2022-08-26T00:37:23.097Z,78.45
2022-08-26T00:42:29.147Z,82.13
2022-08-26T00:47:35.364Z,82.34
2022-08-26T00:52:41.543Z,81.32
2022-08-26T00:57:50.295Z,87.87
2022-08-26T01:02:54.829Z,80.70
2022-08-26T01:07:58.261Z,79.58
2022-08-26T01:13:07.019Z,84.58
2022-08-26T01:18:10.690Z,87.80
2022-08-26T01:23:16.869Z,91.98
2022-08-26T01:28:24.041Z,92.42
2022-08-26T01:33:31.179Z,85.87
2022-08-26T01:38:46.498Z,83.55
2022-08-26T01:43:53.630Z,84.65
2022-08-26T01:48:59.743Z,83.45
2022-08-26T01:54:04.563Z,82.29
2022-08-26T01:59:12.699Z,84.79
2022-08-26T02:04:22.027Z,82.94
2022-08-26T02:09:26.811Z,83.24
2022-08-26T02:14:34.455Z,84.26
2022-08-26T02:19:41.277Z,88.92
2022-08-26T02:24:50.957Z,93.26
2022-08-26T02:29:58.163Z,96.77
2022-08-26T02:35:01.008Z,96.68
2022-08-26T02:40:07.931Z,96.14
2022-08-26T02:45:11.620Z,96.91
2022-08-26T02:50:14.920Z,95.84
2022-08-26T02:55:20.866Z,91.10
2022-08-26T03:00:28.151Z,91.74
2022-08-26T03:05:31.648Z,91.92
2022-08-26T03:10:36.660Z,93.55
2022-08-26T03:15:40.541Z,94.12
2022-08-26T03:20:43.976Z,95.07
2022-08-26T03:25:51.618Z,98.43
2022-08-26T03:30:54.640Z,97.93
2022-08-26T03:35:57.698Z,100.00
2022-08-26T03:41:02.092Z,100.00
2022-08-26T03:46:06.726Z,100.00
2022-08-26T03:51:13.736Z,100.00
2022-08-26T03:56:22.831Z,100.00
2022-08-26T04:01:26.698Z,100.00
2022-08-26T04:06:32.474Z,100.00
2022-08-26T04:11:39.601Z,100.00
2022-08-26T04:16:43.701Z,100.00
2022-08-26T04:21:47.782Z,100.00
2022-08-26T04:26:52.661Z,100.00
2022-08-26T04:31:56.475Z,100.00
2022-08-26T04:36:59.932Z,100.00
2022-08-26T04:42:04.275Z,100.00
2022-08-26T04:47:07.112Z,100.00
2022-08-26T04:52:09.962Z,100.00
2022-08-26T04:57:14.092Z,100.00
2022-08-26T05:02:21.224Z,100.00
2022-08-26T05:07:23.970Z,100.00
2022-08-26T05:12:29.050Z,100.00
2022-08-26T05:17:32.638Z,100.00
2022-08-26T05:22:35.633Z,100.00
2022-08-26T05:27:39.774Z,100.00
2022-08-26T05:32:42.527Z,100.00
2022-08-26T05:37:45.389Z,100.00
2022-08-26T05:42:49.516Z,100.00
2022-08-26T05:47:52.288Z,100.00
2022-08-26T05:52:55.067Z,100.00
2022-08-26T05:57:59.455Z,100.00
2022-08-26T06:03:05.770Z,100.00
2022-08-26T06:08:13.968Z,100.00
2022-08-26T06:13:20.430Z,100.00
2022-08-26T06:18:27.309Z,100.00
2022-08-26T06:23:49.231Z,100.00
2022-08-26T06:28:53.384Z,100.00
2022-08-26T06:33:58.235Z,100.00
2022-08-26T06:39:03.090Z,100.00
2022-08-26T06:44:08.460Z,100.00
2022-08-26T06:49:12.362Z,100.00
2022-08-26T06:54:15.147Z,96.04
2022-08-26T06:59:21.074Z,95.32
2022-08-26T07:04:24.993Z,94.40
2022-08-26T07:09:33.085Z,93.84
2022-08-26T07:14:37.373Z,92.72
2022-08-26T07:19:40.560Z,91.65
2022-08-26T07:24:43.916Z,89.98
2022-08-26T07:29:48.138Z,89.04
2022-08-26T07:34:51.724Z,88.16
2022-08-26T07:39:54.534Z,85.65
2022-08-26T07:44:58.795Z,84.19
2022-08-26T07:50:01.735Z,81.72
2022-08-26T07:55:07.639Z,83.02
2022-08-26T08:00:15.934Z,83.62
2022-08-26T08:05:22.621Z,80.04
2022-08-26T08:10:30.991Z,80.11
2022-08-26T08:15:37.352Z,82.92
2022-08-26T08:20:44.695Z,83.90
2022-08-26T08:25:50.561Z,82.00
2022-08-26T08:30:55.495Z,82.60
2022-08-26T08:35:58.577Z,81.20
2022-08-26T08:41:01.407Z,82.72
2022-08-26T08:46:13.715Z,84.38
2022-08-26T08:51:24.600Z,83.04
2022-08-26T08:56:31.901Z,78.36
2022-08-26T09:01:48.450Z,77.29
2022-08-26T09:12:10.257Z,74.97
2022-08-26T09:17:22.159Z,71.97
2022-08-26T09:22:33.355Z,72.96
2022-08-26T09:27:38.908Z,72.11
2022-08-26T09:32:44.436Z,71.45
2022-08-26T09:37:59.538Z,71.92
2022-08-26T09:43:22.325Z,70.77
2022-08-26T09:48:36.345Z,70.90
2022-08-26T09:53:53.025Z,68.35
2022-08-26T09:58:56.684Z,68.55
2022-08-26T10:04:10.452Z,66.53
2022-08-26T10:09:19.119Z,65.86
2022-08-26T10:14:27.124Z,65.46
2022-08-26T10:19:55.957Z,64.76
2022-08-26T10:25:03.275Z,63.42
2022-08-26T10:30:11.312Z,64.17
2022-08-26T10:35:19.240Z,65.22
2022-08-26T10:40:26.430Z,64.51
2022-08-26T10:45:43.572Z,61.58
2022-08-26T10:50:48.457Z,62.17
2022-08-26T10:56:00.462Z,61.61
2022-08-26T11:01:32.568Z,61.60
2022-08-26T11:06:37.126Z,60.51
2022-08-26T11:11:49.065Z,60.47
2022-08-26T11:16:53.579Z,59.67
2022-08-26T11:22:06.497Z,58.96
2022-08-26T11:27:11.478Z,58.77
2022-08-26T11:32:26.181Z,57.69
2022-08-26T11:37:36.166Z,56.57
2022-08-26T11:42:45.546Z,56.28
2022-08-26T11:47:49.363Z,55.68
2022-08-26T11:53:02.027Z,54.11
2022-08-26T11:58:07.438Z,53.79
2022-08-26T12:03:15.940Z,52.28
2022-08-26T12:08:24.291Z,52.39
2022-08-26T12:13:30.543Z,51.09
2022-08-26T12:18:36.158Z,51.01
2022-08-26T12:23:45.842Z,49.83
2022-08-26T12:28:53.727Z,48.96
2022-08-26T12:33:59.133Z,48.98
2022-08-26T12:39:11.439Z,48.03
2022-08-26T12:44:37.865Z,48.84
2022-08-26T12:49:42.312Z,47.30
2022-08-26T12:55:02.882Z,46.65
2022-08-26T13:00:31.788Z,46.53
2022-08-26T13:05:35.712Z,47.28
2022-08-26T13:10:42.210Z,46.51
2022-08-26T13:15:45.287Z,46.58
2022-08-26T13:20:48.073Z,45.16
2022-08-26T13:25:52.906Z,44.73
2022-08-26T13:30:55.653Z,45.48
2022-08-26T13:35:58.572Z,46.93
2022-08-26T13:41:03.584Z,46.36
2022-08-26T13:46:06.961Z,48.06
2022-08-26T13:51:09.673Z,50.72
2022-08-26T13:56:14.529Z,51.40
2022-08-26T14:01:18.334Z,52.25
2022-08-26T14:06:21.500Z,52.05
2022-08-26T14:11:26.904Z,52.84
2022-08-26T14:16:34.381Z,53.07
2022-08-26T14:21:39.559Z,53.52
2022-08-26T14:26:43.710Z,54.89
2022-08-26T14:31:46.588Z,54.38
2022-08-26T14:36:49.375Z,52.28
2022-08-26T14:41:57.429Z,52.66
2022-08-26T14:47:02.177Z,51.72
2022-08-26T14:52:05.283Z,53.83
2022-08-26T14:57:12.115Z,53.52
2022-08-26T15:02:32.847Z,52.38
2022-08-26T15:07:36.676Z,49.46
2022-08-26T15:12:41.448Z,47.28
2022-08-26T15:17:44.549Z,44.85
2022-08-26T15:22:48.033Z,44.96
2022-08-26T15:27:52.419Z,45.77
2022-08-26T15:32:55.179Z,48.58
2022-08-26T15:37:57.907Z,49.91
2022-08-26T15:43:18.412Z,50.76
2022-08-26T15:48:27.018Z,52.72
2022-08-26T15:53:32.568Z,55.61
2022-08-26T15:58:36.745Z,57.85
2022-08-26T16:03:39.639Z,59.82
2022-08-26T16:08:42.763Z,61.06
2022-08-26T16:13:47.772Z,62.80
2022-08-26T16:18:50.672Z,65.38
2022-08-26T16:23:53.460Z,66.65
2022-08-26T16:28:57.621Z,67.52
2022-08-26T16:34:00.708Z,68.40
2022-08-26T16:39:04.785Z,68.75
2022-08-26T16:44:11.355Z,69.94
2022-08-26T16:49:14.086Z,70.34
2022-08-26T16:54:17.645Z,71.17
2022-08-26T16:59:22.591Z,71.82
2022-08-26T17:04:25.328Z,72.18
2022-08-26T17:09:28.288Z,73.64
2022-08-26T17:14:33.459Z,74.58
2022-08-26T17:19:40.947Z,75.50
2022-08-26T17:24:49.795Z,77.47
2022-08-26T17:29:53.999Z,78.96
2022-08-26T17:34:56.731Z,78.56
2022-08-26T17:39:59.507Z,80.18
2022-08-26T17:45:03.631Z,80.54
2022-08-26T17:50:09.116Z,81.72
2022-08-26T17:55:14.942Z,81.90
2022-08-26T18:00:23.657Z,82.17
2022-08-26T18:05:29.855Z,83.20
2022-08-26T18:10:32.602Z,84.68
2022-08-26T18:15:39.572Z,84.74
2022-08-26T18:20:43.018Z,86.66
2022-08-26T18:25:45.756Z,86.04
2022-08-26T18:30:49.941Z,87.56
2022-08-26T18:35:52.712Z,87.70
2022-08-26T18:40:55.409Z,88.68
2022-08-26T18:46:08.044Z,88.88
2022-08-26T18:51:17.090Z,88.68
2022-08-26T18:56:20.701Z,89.32
2022-08-26T19:01:27.597Z,88.85
2022-08-26T19:06:32.975Z,89.90
2022-08-26T19:11:37.620Z,89.81
2022-08-26T19:16:49.604Z,90.69
2022-08-26T19:21:53.298Z,90.96
2022-08-26T19:26:59.707Z,91.78
2022-08-26T19:32:05.344Z,91.43
2022-08-26T19:37:08.050Z,91.19
2022-08-26T19:42:10.840Z,92.58
2022-08-26T19:47:15.576Z,92.58
2022-08-26T19:52:18.831Z,93.52
2022-08-26T19:57:21.594Z,94.06
2022-08-26T20:02:25.966Z,93.64
2022-08-26T20:07:28.762Z,93.23
2022-08-26T20:12:33.276Z,95.22
2022-08-26T20:17:37.489Z,93.67
2022-08-26T20:22:40.211Z,94.26
2022-08-26T20:27:43.306Z,95.50
2022-08-26T20:32:48.390Z,94.20
2022-08-26T20:37:51.231Z,95.16
2022-08-26T20:42:53.943Z,96.89
2022-08-26T20:47:58.305Z,97.32
2022-08-26T20:53:01.249Z,98.19
2022-08-26T20:58:04.245Z,98.24
2022-08-26T21:03:08.672Z,98.26
2022-08-26T21:08:12.153Z,100.00
2022-08-26T21:13:15.097Z,100.00
2022-08-26T21:18:19.700Z,100.00
2022-08-26T21:23:25.378Z,100.00
2022-08-26T21:28:30.377Z,100.00
2022-08-26T21:33:35.136Z,100.00
2022-08-26T21:38:38.114Z,100.00
2022-08-26T21:43:41.918Z,100.00
2022-08-26T21:48:50.689Z,100.00
2022-08-26T21:53:55.177Z,100.00
2022-08-26T21:58:58.998Z,100.00
2022-08-26T22:04:04.828Z,100.00
2022-08-26T22:09:07.608Z,100.00
2022-08-26T22:14:11.373Z,100.00
2022-08-26T22:19:17.290Z,100.00
2022-08-26T22:24:21.831Z,100.00
2022-08-26T22:29:25.587Z,100.00
2022-08-26T22:34:29.657Z,100.00
2022-08-26T22:39:32.397Z,100.00
2022-08-26T22:44:36.851Z,100.00
2022-08-26T22:49:40.906Z,100.00
2022-08-26T22:54:43.720Z,100.00
2022-08-26T22:59:46.813Z,100.00
2022-08-26T23:04:52.255Z,100.00
2022-08-26T23:09:54.986Z,100.00
2022-08-26T23:14:57.915Z,100.00
2022-08-26T23:20:02.889Z,100.00
2022-08-26T23:25:08.308Z,100.00
2022-08-26T23:30:16.223Z,100.00
2022-08-26T23:35:22.524Z,100.00
2022-08-26T23:40:29.172Z,100.00
2022-08-26T23:45:33.497Z,100.00
2022-08-26T23:50:57.243Z,100.00
2022-08-26T23:55:59.959Z,100.00
